G4ZMG Weather Reports


Display with metric or nautical units.
time (UTC)temp
F
wind
direction
speed
MPH
gust
MPH
rain 1hr
in
rain 24hr
in
rain mn
in
humidity
%
barometer
mb
20260510203009 49 326 0.0 0.0 0.00 0.00 0.00 62 1013.8
20260510202043 49 18 0.0 0.0 0.00 0.00 0.00 62 1013.8
20260510201023 50 33 0.0 0.0 0.00 0.00 0.00 62 1013.7
20260510200003 50 51 0.0 0.0 0.00 0.00 0.00 59 1013.7
20260510195026 51 52 0.0 0.0 0.00 0.00 0.00 58 1013.8
20260510194004 51 50 0.0 0.0 0.00 0.00 0.00 57 1013.7
20260510193038 52 49 0.0 0.0 0.00 0.00 0.00 57 1013.8
20260510192029 52 38 0.0 0.0 0.00 0.00 0.00 55 1013.8
20260510191005 53 22 0.0 2.0 0.00 0.00 0.00 54 1013.9
20260510190010 53 79 0.0 2.0 0.00 0.00 0.00 54 1014.0
20260510185044 53 31 0.0 2.0 0.00 0.00 0.00 54 1014.0
20260510184034 53 20 0.0 0.0 0.00 0.00 0.00 55 1014.1
20260510183028 54 30 0.0 4.0 0.00 0.00 0.00 54 1014.1
20260510182009 54 39 0.0 3.0 0.00 0.00 0.00 54 1014.0
20260510181004 55 91 0.0 5.0 0.00 0.00 0.00 53 1014.0
20260510180019 55 82 0.0 5.0 0.00 0.00 0.00 52 1013.9
20260510175043 55 59 0.0 10.0 0.00 0.00 0.00 51 1013.9
20260510174026 56 37 2.0 8.0 0.00 0.00 0.00 49 1014.0
20260510173004 56 70 0.0 7.0 0.00 0.00 0.00 50 1013.9
20260510172039 57 97 0.0 2.0 0.00 0.00 0.00 48 1014.1
20260510171024 57 81 0.0 11.0 0.00 0.00 0.00 49 1014.2
20260510170011 57 98 0.0 9.0 0.00 0.00 0.00 51 1014.3
20260510165039 56 75 0.0 4.0 0.00 0.00 0.00 50 1014.3
20260510164022 56 74 0.0 3.0 0.00 0.00 0.00 54 1014.4
20260510163003 56 64 0.0 7.0 0.00 0.00 0.00 50 1014.6
20260510162028 58 39 0.0 9.0 0.00 0.00 0.00 49 1014.7
20260510161003 59 31 0.0 5.0 0.00 0.00 0.00 48 1014.7
20260510160041 59 350 1.0 4.0 0.00 0.00 0.00 49 1014.8
20260510155027 59 35 0.0 10.0 0.00 0.00 0.00 49 1014.8
20260510154005 56 5 0.0 3.0 0.00 0.00 0.00 51 1015.0
20260510153041 57 108 2.0 8.0 0.00 0.00 0.00 52 1015.0
20260510152024 59 62 1.0 6.0 0.00 0.00 0.00 51 1015.2
20260510151002 57 69 0.0 8.0 0.00 0.00 0.00 51 1015.3
20260510150027 59 33 0.0 9.0 0.00 0.00 0.00 51 1015.4
20260510145045 56 33 0.0 4.0 0.00 0.00 0.00 55 1015.5
20260510144031 58 58 0.0 6.0 0.00 0.00 0.00 52 1015.6
20260510143011 56 18 0.0 7.0 0.00 0.00 0.00 53 1015.9
20260510142041 57 143 1.0 8.0 0.00 0.00 0.00 56 1015.9
20260510141028 57 39 0.0 11.0 0.00 0.00 0.00 55 1016.0
20260510140046 57 77 0.0 9.0 0.00 0.00 0.00 56 1016.1
20260510135023 58 56 11.0 11.0 0.00 0.00 0.00 57 1016.1
20260510134004 56 72 0.0 9.0 0.00 0.00 0.00 59 1016.2
20260510133039 57 75 0.0 10.0 0.00 0.00 0.00 59 1016.2
20260510132028 57 70 2.0 10.0 0.00 0.00 0.00 59 1016.4
20260510131010 55 99 0.0 7.0 0.00 0.00 0.00 63 1016.4
20260510130031 56 66 0.0 11.0 0.00 0.00 0.00 62 1016.4
20260510125006 55 99 2.0 11.0 0.00 0.00 0.00 64 1016.6
20260510124041 56 55 0.0 11.0 0.00 0.00 0.00 65 1016.8
20260510123026 54 56 0.0 10.0 0.00 0.00 0.00 66 1017.0
20260510122011 53 353 0.0 9.0 0.00 0.00 0.00 67 1017.0
20260510121004 53 14 0.0 12.0 0.00 0.00 0.00 68 1017.1
20260510120041 53 53 0.0 11.0 0.00 0.00 0.00 68 1017.1
20260510115024 52 10 7.0 10.0 0.00 0.00 0.00 70 1017.6
20260510114047 52 10 0.0 14.0 0.00 0.00 0.00 69 1017.6
20260510113029 53 49 0.0 14.0 0.00 0.00 0.00 70 1017.7
20260510112011 53 52 0.0 7.0 0.00 0.00 0.00 69 1017.9
20260510111002 52 79 0.0 9.0 0.00 0.00 0.00 71 1018.0
20260510110045 51 6 0.0 10.0 0.00 0.00 0.00 72 1018.0
20260510105029 51 79 0.0 9.0 0.00 0.00 0.00 73 1018.1
20260510104008 51 343 0.0 13.0 0.00 0.00 0.00 74 1018.1
20260510103043 50 85 1.0 10.0 0.00 0.00 0.00 75 1018.3
20260510102036 49 80 0.0 8.0 0.00 0.00 0.00 77 1018.3
20260510101024 49 64 0.0 7.0 0.00 0.00 0.00 77 1018.4
20260510100032 49 19 0.0 9.0 0.00 0.00 0.00 78 1018.5
20260510095008 49 44 0.0 12.0 0.00 0.00 0.00 78 1018.6
20260510094043 49 20 0.0 12.0 0.00 0.00 0.00 79 1018.4
20260510093024 49 54 0.0 11.0 0.00 0.00 0.00 79 1018.7
20260510092006 48 68 0.0 14.0 0.00 0.00 0.00 79 1018.6
20260510091042 49 348 0.0 11.0 0.00 0.00 0.00 80 1018.7
20260510090048 48 10 5.0 11.0 0.00 0.00 0.00 81 1018.8
20260510085039 48 25 5.0 11.0 0.00 0.00 0.00 81 1018.8
20260510084034 48 25 0.0 11.0 0.00 0.00 0.00 82 1018.9
20260510083027 48 0.0 0.0 0.00 0.00 0.00 83 1018.8
20260510082010 0 0.0 0.0 0.00 0.00 0.00 1018.8
20260510081046 0 0.0 0.0 0.00 0.00 0.00 1018.8
20260510080011 47 79 0.0 10.0 0.00 0.00 0.00 85 1018.8
20260510075042 47 54 6.0 10.0 0.00 0.00 0.00 85 1018.8
20260510074030 46 353 0.0 12.0 0.00 0.00 0.00 86 1018.8
20260510073000 46 27 8.0 12.0 0.00 0.00 0.00 86 1018.9
20260510072031 46 84 0.0 11.0 0.00 0.00 0.00 86 1018.7
20260510071010 46 58 0.0 11.0 0.00 0.00 0.00 87 1018.8
20260510070046 46 31 0.0 13.0 0.00 0.00 0.00 87 1018.8
20260510065029 46 51 0.0 14.0 0.00 0.00 0.00 87 1018.7
20260510064003 46 39 1.0 10.0 0.00 0.00 0.00 87 1018.6
20260510063032 46 355 0.0 9.0 0.00 0.00 0.00 87 1018.6
20260510062011 46 359 6.0 12.0 0.00 0.00 0.00 88 1018.6
20260510061002 46 16 0.0 12.0 0.00 0.00 0.00 88 1018.5
20260510060024 46 56 0.0 9.0 0.00 0.00 0.00 88 1018.5
20260510055044 46 25 6.0 10.0 0.00 0.00 0.00 89 1018.4
20260510054028 46 33 9.0 14.0 0.00 0.00 0.00 89 1018.4
20260510053009 46 353 0.0 15.0 0.00 0.00 0.00 89 1018.3
20260510052045 47 47 0.0 10.0 0.00 0.00 0.00 89 1018.4
20260510051028 47 64 0.0 10.0 0.00 0.00 0.00 89 1018.5
20260510050043 47 7 1.0 9.0 0.00 0.00 0.00 90 1018.5
20260510045023 47 61 0.0 9.0 0.00 0.00 0.00 90 1018.5
20260510044004 47 15 9.0 12.0 0.00 0.00 0.00 90 1018.4
20260510043036 47 70 0.0 9.0 0.00 0.00 0.00 90 1018.5
20260510042031 47 52 0.0 14.0 0.00 0.00 0.00 90 1018.5
20260510041019 47 28 0.0 15.0 0.00 0.00 0.00 90 1018.6
20260510040039 47 13 0.0 11.0 0.00 0.00 0.00 90 1018.6
20260510035020 47 4 0.0 10.0 0.00 0.00 0.00 90 1018.6
20260510034044 47 35 0.0 11.0 0.00 0.00 0.00 90 1018.5
20260510033030 47 311 0.0 11.0 0.00 0.00 0.00 90 1018.6
20260510032020 47 65 3.0 10.0 0.00 0.00 0.00 90 1018.6
20260510031004 47 57 0.0 15.0 0.00 0.00 0.00 90 1018.6
20260510030006 47 56 4.0 14.0 0.00 0.00 0.00 89 1018.8
20260510025033 47 45 0.0 14.0 0.00 0.00 0.00 89 1018.8
20260510024021 47 4 0.0 15.0 0.00 0.00 0.00 89 1018.6
20260510023005 48 31 0.0 15.0 0.00 0.00 0.00 89 1018.7
20260510022045 48 64 0.0 11.0 0.00 0.00 0.00 89 1018.6
20260510021033 48 29 0.0 10.0 0.00 0.00 0.00 89 1018.7
20260510020024 48 36 7.0 8.0 0.00 0.00 0.00 89 1018.6
20260510015043 48 45 0.0 10.0 0.00 0.00 0.00 89 1018.7
20260510014036 48 339 0.0 12.0 0.00 0.00 0.00 89 1018.7
20260510013023 49 33 0.0 10.0 0.00 0.00 0.00 89 1018.7
20260510012046 49 60 0.0 11.0 0.00 0.00 0.00 88 1018.8
20260510011027 49 49 7.0 10.0 0.00 0.00 0.00 88 1018.8
20260510010007 49 45 0.0 11.0 0.00 0.00 0.00 88 1018.8
20260510005032 49 18 9.0 12.0 0.00 0.00 0.00 87 1018.7
20260510004017 49 22 0.0 9.0 0.00 0.00 0.00 87 1018.3
20260510003045 49 33 7.0 11.0 0.00 0.00 0.00 86 1018.3
20260510002035 49 56 1.0 12.0 0.00 0.00 0.00 86 1018.3
20260510001012 49 6 0.0 9.0 0.00 0.00 0.00 85 1018.4
20260510000005 50 46 0.0 11.0 0.00 0.00 0.00 85 1018.4
20260509235046 50 15 1.0 15.0 0.00 0.00 0.00 85 1018.6
20260509234037 50 21 4.0 12.0 0.00 0.00 0.00 84 1018.6
20260509233030 50 29 0.0 10.0 0.00 0.00 0.00 84 1018.7
20260509232024 50 40 0.0 11.0 0.00 0.00 0.00 84 1018.7
20260509231011 50 36 0.0 10.0 0.00 0.00 0.00 84 1018.5
20260509230047 50 22 1.0 11.0 0.00 0.00 0.00 84 1018.5
20260509225037 50 27 3.0 11.0 0.00 0.00 0.00 84 1018.4
20260509224025 50 35 12.0 16.0 0.00 0.00 0.00 84 1018.5
20260509223012 51 16 15.0 16.0 0.00 0.00 0.00 84 1018.5
20260509222006 51 44 0.0 12.0 0.00 0.00 0.00 84 1018.4
20260509221045 51 48 7.0 10.0 0.00 0.00 0.00 84 1018.3
20260509220036 52 18 2.0 10.0 0.00 0.00 0.00 83 1018.3
20260509215024 52 16 0.0 10.0 0.00 0.00 0.00 83 1018.2
20260509214004 52 62 0.0 12.0 0.00 0.00 0.00 83 1018.2
20260509213047 52 29 4.0 16.0 0.00 0.00 0.00 82 1018.0
20260509212043 53 39 0.0 10.0 0.00 0.00 0.00 82 1017.8
20260509211032 53 355 0.0 10.0 0.00 0.00 0.00 82 1017.7
20260509210033 54 31 0.0 13.0 0.00 0.00 0.00 81 1017.8
20260509205020 54 10 1.0 11.0 0.00 0.19 0.00 80 1017.8
20260509204006 54 36 1.0 14.0 0.00 0.19 0.00 79 1017.7